sensor_id;sensor_type;location;lat;lon;timestamp;P1;durP1;ratioP1;P2;durP2;ratioP2
43449;SDS011;29041;42.266;23.110;2022-10-31T00:01:41;5.25;;;2.30;;
43449;SDS011;29041;42.266;23.110;2022-10-31T00:04:32;7.25;;;3.25;;
43449;SDS011;29041;42.266;23.110;2022-10-31T00:07:42;10.77;;;4.03;;
43449;SDS011;29041;42.266;23.110;2022-10-31T00:10:32;6.38;;;3.13;;
43449;SDS011;29041;42.266;23.110;2022-10-31T00:13:25;5.32;;;2.88;;
43449;SDS011;29041;42.266;23.110;2022-10-31T00:16:16;5.93;;;2.30;;
43449;SDS011;29041;42.266;23.110;2022-10-31T00:19:07;8.52;;;1.83;;
43449;SDS011;29041;42.266;23.110;2022-10-31T00:21:58;5.35;;;2.25;;
43449;SDS011;29041;42.266;23.110;2022-10-31T00:25:02;5.55;;;3.40;;
43449;SDS011;29041;42.266;23.110;2022-10-31T00:27:50;4.65;;;2.35;;
43449;SDS011;29041;42.266;23.110;2022-10-31T00:30:37;6.63;;;2.72;;
43449;SDS011;29041;42.266;23.110;2022-10-31T00:33:24;4.55;;;2.53;;
43449;SDS011;29041;42.266;23.110;2022-10-31T00:36:13;4.38;;;2.30;;
43449;SDS011;29041;42.266;23.110;2022-10-31T00:39:02;4.22;;;2.05;;
43449;SDS011;29041;42.266;23.110;2022-10-31T00:41:55;7.07;;;3.72;;
43449;SDS011;29041;42.266;23.110;2022-10-31T00:44:43;3.83;;;2.38;;
43449;SDS011;29041;42.266;23.110;2022-10-31T00:47:34;4.82;;;2.95;;
43449;SDS011;29041;42.266;23.110;2022-10-31T00:50:29;8.75;;;2.38;;
43449;SDS011;29041;42.266;23.110;2022-10-31T00:53:24;4.03;;;2.60;;
43449;SDS011;29041;42.266;23.110;2022-10-31T00:56:15;4.13;;;2.58;;
43449;SDS011;29041;42.266;23.110;2022-10-31T00:59:06;3.67;;;2.50;;
43449;SDS011;29041;42.266;23.110;2022-10-31T01:01:53;4.30;;;2.83;;
43449;SDS011;29041;42.266;23.110;2022-10-31T01:04:40;6.70;;;2.97;;
43449;SDS011;29041;42.266;23.110;2022-10-31T01:07:27;16.65;;;3.92;;
43449;SDS011;29041;42.266;23.110;2022-10-31T01:10:14;4.20;;;2.22;;
43449;SDS011;29041;42.266;23.110;2022-10-31T01:13:03;9.40;;;3.13;;
43449;SDS011;29041;42.266;23.110;2022-10-31T01:15:54;7.18;;;3.47;;
43449;SDS011;29041;42.266;23.110;2022-10-31T01:18:42;12.25;;;3.00;;
43449;SDS011;29041;42.266;23.110;2022-10-31T01:21:30;7.65;;;3.42;;
43449;SDS011;29041;42.266;23.110;2022-10-31T01:24:17;6.28;;;3.85;;
43449;SDS011;29041;42.266;23.110;2022-10-31T01:27:04;6.28;;;2.90;;
43449;SDS011;29041;42.266;23.110;2022-10-31T01:29:51;7.93;;;2.83;;
43449;SDS011;29041;42.266;23.110;2022-10-31T01:32:41;5.50;;;2.65;;
43449;SDS011;29041;42.266;23.110;2022-10-31T01:35:29;5.70;;;2.25;;
43449;SDS011;29041;42.266;23.110;2022-10-31T01:38:17;5.25;;;2.88;;
43449;SDS011;29041;42.266;23.110;2022-10-31T01:41:04;11.27;;;3.15;;
43449;SDS011;29041;42.266;23.110;2022-10-31T01:51:22;6.85;;;2.55;;
43449;SDS011;29041;42.266;23.110;2022-10-31T01:54:48;7.88;;;3.15;;
43449;SDS011;29041;42.266;23.110;2022-10-31T01:58:07;4.75;;;2.30;;
43449;SDS011;29041;42.266;23.110;2022-10-31T02:01:02;5.80;;;3.10;;
43449;SDS011;29041;42.266;23.110;2022-10-31T02:03:59;6.65;;;2.53;;
43449;SDS011;29041;42.266;23.110;2022-10-31T02:06:55;9.32;;;3.05;;
43449;SDS011;29041;42.266;23.110;2022-10-31T02:10:18;5.87;;;2.80;;
43449;SDS011;29041;42.266;23.110;2022-10-31T02:13:23;7.60;;;3.30;;
43449;SDS011;29041;42.266;23.110;2022-10-31T02:16:27;5.60;;;2.65;;
43449;SDS011;29041;42.266;23.110;2022-10-31T02:19:34;6.00;;;2.28;;
43449;SDS011;29041;42.266;23.110;2022-10-31T02:23:00;4.45;;;2.17;;
43449;SDS011;29041;42.266;23.110;2022-10-31T02:36:56;5.80;;;3.58;;
43449;SDS011;29041;42.266;23.110;2022-10-31T02:44:00;5.43;;;2.72;;
43449;SDS011;29041;42.266;23.110;2022-10-31T02:47:22;3.05;;;1.70;;
43449;SDS011;29041;42.266;23.110;2022-10-31T02:55:47;8.18;;;2.88;;
43449;SDS011;29041;42.266;23.110;2022-10-31T02:58:47;4.82;;;2.25;;
43449;SDS011;29041;42.266;23.110;2022-10-31T03:05:02;4.88;;;2.50;;
43449;SDS011;29041;42.266;23.110;2022-10-31T03:13:46;4.75;;;2.50;;
43449;SDS011;29041;42.266;23.110;2022-10-31T03:16:47;5.68;;;3.00;;
43449;SDS011;29041;42.266;23.110;2022-10-31T03:20:09;6.47;;;2.15;;
43449;SDS011;29041;42.266;23.110;2022-10-31T03:22:57;2.38;;;1.42;;
43449;SDS011;29041;42.266;23.110;2022-10-31T03:26:03;4.18;;;1.88;;
43449;SDS011;29041;42.266;23.110;2022-10-31T03:28:49;2.67;;;1.52;;
43449;SDS011;29041;42.266;23.110;2022-10-31T03:31:44;2.28;;;1.60;;
43449;SDS011;29041;42.266;23.110;2022-10-31T03:34:36;3.63;;;1.90;;
43449;SDS011;29041;42.266;23.110;2022-10-31T03:37:36;4.78;;;1.35;;
43449;SDS011;29041;42.266;23.110;2022-10-31T03:40:39;2.83;;;1.23;;
43449;SDS011;29041;42.266;23.110;2022-10-31T03:43:36;3.45;;;1.90;;
43449;SDS011;29041;42.266;23.110;2022-10-31T03:46:32;7.30;;;2.15;;
43449;SDS011;29041;42.266;23.110;2022-10-31T03:49:22;6.40;;;1.90;;
43449;SDS011;29041;42.266;23.110;2022-10-31T03:52:13;6.38;;;1.65;;
43449;SDS011;29041;42.266;23.110;2022-10-31T03:55:07;4.72;;;1.50;;
43449;SDS011;29041;42.266;23.110;2022-10-31T03:58:03;2.45;;;1.48;;
43449;SDS011;29041;42.266;23.110;2022-10-31T04:00:55;2.40;;;1.42;;
43449;SDS011;29041;42.266;23.110;2022-10-31T04:03:46;6.80;;;1.67;;
43449;SDS011;29041;42.266;23.110;2022-10-31T04:06:36;6.32;;;1.90;;
43449;SDS011;29041;42.266;23.110;2022-10-31T04:09:32;4.72;;;1.77;;
43449;SDS011;29041;42.266;23.110;2022-10-31T04:12:37;5.15;;;1.55;;
43449;SDS011;29041;42.266;23.110;2022-10-31T04:15:35;3.20;;;1.30;;
43449;SDS011;29041;42.266;23.110;2022-10-31T04:18:33;3.28;;;1.75;;
43449;SDS011;29041;42.266;23.110;2022-10-31T04:21:26;4.90;;;1.80;;
43449;SDS011;29041;42.266;23.110;2022-10-31T04:24:18;4.10;;;1.63;;
43449;SDS011;29041;42.266;23.110;2022-10-31T04:27:28;4.20;;;2.38;;
43449;SDS011;29041;42.266;23.110;2022-10-31T04:30:17;5.45;;;1.67;;
43449;SDS011;29041;42.266;23.110;2022-10-31T04:33:06;4.13;;;1.73;;
43449;SDS011;29041;42.266;23.110;2022-10-31T04:35:57;1.90;;;1.40;;
43449;SDS011;29041;42.266;23.110;2022-10-31T04:38:50;2.88;;;1.60;;
43449;SDS011;29041;42.266;23.110;2022-10-31T04:41:38;5.70;;;1.67;;
43449;SDS011;29041;42.266;23.110;2022-10-31T04:44:25;5.63;;;1.70;;
43449;SDS011;29041;42.266;23.110;2022-10-31T04:47:12;3.45;;;1.55;;
43449;SDS011;29041;42.266;23.110;2022-10-31T04:49:59;6.10;;;2.25;;
43449;SDS011;29041;42.266;23.110;2022-10-31T04:52:48;7.47;;;1.52;;
43449;SDS011;29041;42.266;23.110;2022-10-31T04:55:35;6.22;;;2.53;;
43449;SDS011;29041;42.266;23.110;2022-10-31T04:58:23;5.05;;;2.00;;
43449;SDS011;29041;42.266;23.110;2022-10-31T05:01:10;2.80;;;1.55;;
43449;SDS011;29041;42.266;23.110;2022-10-31T05:03:57;3.85;;;2.00;;
43449;SDS011;29041;42.266;23.110;2022-10-31T05:06:44;3.05;;;1.80;;
43449;SDS011;29041;42.266;23.110;2022-10-31T05:09:33;3.08;;;1.60;;
43449;SDS011;29041;42.266;23.110;2022-10-31T05:12:20;5.80;;;1.92;;
43449;SDS011;29041;42.266;23.110;2022-10-31T05:15:07;2.60;;;1.65;;
43449;SDS011;29041;42.266;23.110;2022-10-31T05:17:55;2.92;;;1.73;;
43449;SDS011;29041;42.266;23.110;2022-10-31T05:20:43;4.60;;;1.52;;
43449;SDS011;29041;42.266;23.110;2022-10-31T05:23:30;2.63;;;1.40;;
43449;SDS011;29041;42.266;23.110;2022-10-31T05:26:19;3.65;;;2.00;;
43449;SDS011;29041;42.266;23.110;2022-10-31T05:29:06;3.63;;;1.55;;
43449;SDS011;29041;42.266;23.110;2022-10-31T05:31:53;3.20;;;1.45;;
43449;SDS011;29041;42.266;23.110;2022-10-31T05:34:40;3.10;;;1.67;;
43449;SDS011;29041;42.266;23.110;2022-10-31T05:37:28;3.95;;;2.53;;
43449;SDS011;29041;42.266;23.110;2022-10-31T05:40:16;7.18;;;1.90;;
43449;SDS011;29041;42.266;23.110;2022-10-31T05:43:06;2.55;;;1.38;;
43449;SDS011;29041;42.266;23.110;2022-10-31T05:45:54;4.63;;;1.85;;
43449;SDS011;29041;42.266;23.110;2022-10-31T05:48:44;3.50;;;2.05;;
43449;SDS011;29041;42.266;23.110;2022-10-31T05:51:31;2.28;;;1.42;;
43449;SDS011;29041;42.266;23.110;2022-10-31T05:54:19;2.63;;;1.67;;
43449;SDS011;29041;42.266;23.110;2022-10-31T05:57:08;3.50;;;1.67;;
43449;SDS011;29041;42.266;23.110;2022-10-31T05:59:57;5.05;;;1.77;;
43449;SDS011;29041;42.266;23.110;2022-10-31T06:02:44;4.38;;;1.40;;
43449;SDS011;29041;42.266;23.110;2022-10-31T06:05:32;2.40;;;1.30;;
43449;SDS011;29041;42.266;23.110;2022-10-31T06:08:21;4.47;;;1.92;;
43449;SDS011;29041;42.266;23.110;2022-10-31T06:11:11;6.38;;;2.35;;
43449;SDS011;29041;42.266;23.110;2022-10-31T06:13:58;3.85;;;1.55;;
43449;SDS011;29041;42.266;23.110;2022-10-31T06:16:47;4.72;;;1.75;;
43449;SDS011;29041;42.266;23.110;2022-10-31T06:19:40;4.78;;;2.00;;
43449;SDS011;29041;42.266;23.110;2022-10-31T06:22:27;9.10;;;1.63;;
43449;SDS011;29041;42.266;23.110;2022-10-31T06:25:14;3.75;;;2.00;;
43449;SDS011;29041;42.266;23.110;2022-10-31T06:28:01;7.28;;;2.83;;
43449;SDS011;29041;42.266;23.110;2022-10-31T06:30:50;5.53;;;2.35;;
43449;SDS011;29041;42.266;23.110;2022-10-31T06:33:40;3.80;;;2.47;;
43449;SDS011;29041;42.266;23.110;2022-10-31T06:36:27;3.28;;;1.55;;
43449;SDS011;29041;42.266;23.110;2022-10-31T06:39:25;4.78;;;2.75;;
43449;SDS011;29041;42.266;23.110;2022-10-31T06:42:14;3.40;;;1.77;;
43449;SDS011;29041;42.266;23.110;2022-10-31T06:45:02;3.80;;;1.88;;
43449;SDS011;29041;42.266;23.110;2022-10-31T06:47:50;7.68;;;1.98;;
43449;SDS011;29041;42.266;23.110;2022-10-31T06:50:43;3.05;;;1.85;;
43449;SDS011;29041;42.266;23.110;2022-10-31T06:53:30;5.23;;;1.90;;
43449;SDS011;29041;42.266;23.110;2022-10-31T06:56:17;5.10;;;2.03;;
43449;SDS011;29041;42.266;23.110;2022-10-31T06:59:06;2.75;;;2.05;;
43449;SDS011;29041;42.266;23.110;2022-10-31T07:01:53;5.28;;;1.88;;
43449;SDS011;29041;42.266;23.110;2022-10-31T07:04:40;4.88;;;2.10;;
43449;SDS011;29041;42.266;23.110;2022-10-31T07:07:29;4.18;;;1.65;;
43449;SDS011;29041;42.266;23.110;2022-10-31T07:10:16;7.18;;;1.83;;
43449;SDS011;29041;42.266;23.110;2022-10-31T07:13:04;4.47;;;1.67;;
43449;SDS011;29041;42.266;23.110;2022-10-31T07:15:52;16.13;;;2.35;;
43449;SDS011;29041;42.266;23.110;2022-10-31T07:18:40;6.57;;;2.00;;
43449;SDS011;29041;42.266;23.110;2022-10-31T07:21:27;3.88;;;2.33;;
43449;SDS011;29041;42.266;23.110;2022-10-31T07:24:16;6.35;;;2.13;;
43449;SDS011;29041;42.266;23.110;2022-10-31T07:27:03;3.50;;;1.80;;
43449;SDS011;29041;42.266;23.110;2022-10-31T07:29:50;5.68;;;3.28;;
43449;SDS011;29041;42.266;23.110;2022-10-31T07:32:38;6.25;;;2.47;;
43449;SDS011;29041;42.266;23.110;2022-10-31T07:35:26;7.30;;;2.13;;
43449;SDS011;29041;42.266;23.110;2022-10-31T07:38:15;2.72;;;1.60;;
43449;SDS011;29041;42.266;23.110;2022-10-31T07:41:03;5.03;;;2.30;;
43449;SDS011;29041;42.266;23.110;2022-10-31T07:43:51;6.68;;;1.98;;
43449;SDS011;29041;42.266;23.110;2022-10-31T07:46:38;3.83;;;1.75;;
43449;SDS011;29041;42.266;23.110;2022-10-31T07:49:25;4.53;;;2.38;;
43449;SDS011;29041;42.266;23.110;2022-10-31T07:52:12;4.45;;;2.47;;
43449;SDS011;29041;42.266;23.110;2022-10-31T07:55:00;5.90;;;2.33;;
43449;SDS011;29041;42.266;23.110;2022-10-31T07:57:56;5.97;;;1.85;;
43449;SDS011;29041;42.266;23.110;2022-10-31T08:00:44;7.68;;;1.90;;
43449;SDS011;29041;42.266;23.110;2022-10-31T08:03:32;3.58;;;2.28;;
43449;SDS011;29041;42.266;23.110;2022-10-31T08:06:19;5.85;;;2.05;;
43449;SDS011;29041;42.266;23.110;2022-10-31T08:09:06;3.15;;;2.05;;
43449;SDS011;29041;42.266;23.110;2022-10-31T08:11:53;5.47;;;1.73;;
43449;SDS011;29041;42.266;23.110;2022-10-31T08:14:42;3.67;;;2.25;;
43449;SDS011;29041;42.266;23.110;2022-10-31T08:17:29;7.13;;;2.42;;
43449;SDS011;29041;42.266;23.110;2022-10-31T08:20:16;8.45;;;2.10;;
43449;SDS011;29041;42.266;23.110;2022-10-31T08:23:04;3.83;;;2.20;;
43449;SDS011;29041;42.266;23.110;2022-10-31T08:25:51;3.67;;;2.50;;
43449;SDS011;29041;42.266;23.110;2022-10-31T08:28:40;12.38;;;4.53;;
43449;SDS011;29041;42.266;23.110;2022-10-31T08:31:31;7.13;;;3.90;;
43449;SDS011;29041;42.266;23.110;2022-10-31T08:34:19;13.70;;;2.40;;
43449;SDS011;29041;42.266;23.110;2022-10-31T08:37:06;5.18;;;2.45;;
43449;SDS011;29041;42.266;23.110;2022-10-31T08:39:53;10.38;;;3.05;;
43449;SDS011;29041;42.266;23.110;2022-10-31T08:42:40;6.38;;;1.92;;
43449;SDS011;29041;42.266;23.110;2022-10-31T08:45:27;5.60;;;2.05;;
43449;SDS011;29041;42.266;23.110;2022-10-31T08:48:18;6.93;;;2.42;;
43449;SDS011;29041;42.266;23.110;2022-10-31T08:51:06;3.80;;;1.58;;
43449;SDS011;29041;42.266;23.110;2022-10-31T08:53:53;4.00;;;1.60;;
43449;SDS011;29041;42.266;23.110;2022-10-31T08:56:40;7.35;;;2.03;;
43449;SDS011;29041;42.266;23.110;2022-10-31T08:59:27;4.30;;;1.60;;
43449;SDS011;29041;42.266;23.110;2022-10-31T09:02:14;10.82;;;3.00;;
43449;SDS011;29041;42.266;23.110;2022-10-31T09:05:03;4.68;;;2.45;;
43449;SDS011;29041;42.266;23.110;2022-10-31T09:07:51;3.22;;;2.10;;
43449;SDS011;29041;42.266;23.110;2022-10-31T09:10:42;6.28;;;3.08;;
43449;SDS011;29041;42.266;23.110;2022-10-31T09:13:30;6.28;;;2.35;;
43449;SDS011;29041;42.266;23.110;2022-10-31T09:16:17;15.45;;;3.78;;
43449;SDS011;29041;42.266;23.110;2022-10-31T09:19:04;4.07;;;1.45;;
43449;SDS011;29041;42.266;23.110;2022-10-31T09:21:53;4.15;;;2.42;;
43449;SDS011;29041;42.266;23.110;2022-10-31T09:24:41;4.63;;;1.58;;
43449;SDS011;29041;42.266;23.110;2022-10-31T09:27:28;6.22;;;2.65;;
43449;SDS011;29041;42.266;23.110;2022-10-31T09:30:15;5.50;;;1.95;;
43449;SDS011;29041;42.266;23.110;2022-10-31T09:33:03;9.52;;;2.00;;
43449;SDS011;29041;42.266;23.110;2022-10-31T09:35:51;6.93;;;2.22;;
43449;SDS011;29041;42.266;23.110;2022-10-31T09:38:39;5.13;;;2.03;;
43449;SDS011;29041;42.266;23.110;2022-10-31T09:41:28;8.32;;;2.83;;
43449;SDS011;29041;42.266;23.110;2022-10-31T09:44:25;9.27;;;2.70;;
43449;SDS011;29041;42.266;23.110;2022-10-31T09:47:24;3.45;;;1.60;;
43449;SDS011;29041;42.266;23.110;2022-10-31T09:50:22;3.67;;;1.85;;
43449;SDS011;29041;42.266;23.110;2022-10-31T09:53:16;2.80;;;1.98;;
43449;SDS011;29041;42.266;23.110;2022-10-31T09:56:11;4.82;;;1.55;;
43449;SDS011;29041;42.266;23.110;2022-10-31T09:59:02;11.00;;;1.63;;
43449;SDS011;29041;42.266;23.110;2022-10-31T10:01:54;9.35;;;2.20;;
43449;SDS011;29041;42.266;23.110;2022-10-31T10:04:47;5.32;;;1.33;;
43449;SDS011;29041;42.266;23.110;2022-10-31T10:07:41;4.85;;;1.90;;
43449;SDS011;29041;42.266;23.110;2022-10-31T10:10:39;3.70;;;1.40;;
43449;SDS011;29041;42.266;23.110;2022-10-31T10:13:36;3.65;;;1.10;;
43449;SDS011;29041;42.266;23.110;2022-10-31T10:16:40;4.97;;;1.30;;
43449;SDS011;29041;42.266;23.110;2022-10-31T10:23:17;4.35;;;1.95;;
43449;SDS011;29041;42.266;23.110;2022-10-31T10:26:17;3.05;;;0.88;;
43449;SDS011;29041;42.266;23.110;2022-10-31T10:29:11;1.73;;;0.95;;
43449;SDS011;29041;42.266;23.110;2022-10-31T10:32:09;4.50;;;1.17;;
43449;SDS011;29041;42.266;23.110;2022-10-31T10:35:02;2.70;;;1.20;;
43449;SDS011;29041;42.266;23.110;2022-10-31T10:38:02;2.40;;;1.02;;
43449;SDS011;29041;42.266;23.110;2022-10-31T10:41:09;2.70;;;0.90;;
43449;SDS011;29041;42.266;23.110;2022-10-31T10:44:00;3.10;;;1.00;;
43449;SDS011;29041;42.266;23.110;2022-10-31T10:46:51;4.07;;;1.60;;
43449;SDS011;29041;42.266;23.110;2022-10-31T10:50:03;2.75;;;1.42;;
43449;SDS011;29041;42.266;23.110;2022-10-31T10:55:49;3.05;;;1.13;;
43449;SDS011;29041;42.266;23.110;2022-10-31T10:58:43;5.18;;;1.67;;
43449;SDS011;29041;42.266;23.110;2022-10-31T11:01:31;6.53;;;1.52;;
43449;SDS011;29041;42.266;23.110;2022-10-31T11:04:28;2.25;;;1.10;;
43449;SDS011;29041;42.266;23.110;2022-10-31T11:07:17;4.57;;;1.88;;
43449;SDS011;29041;42.266;23.110;2022-10-31T11:10:05;2.20;;;1.10;;
43449;SDS011;29041;42.266;23.110;2022-10-31T11:13:02;3.03;;;1.42;;
43449;SDS011;29041;42.266;23.110;2022-10-31T11:15:54;6.72;;;2.10;;
43449;SDS011;29041;42.266;23.110;2022-10-31T11:18:45;3.80;;;2.17;;
43449;SDS011;29041;42.266;23.110;2022-10-31T11:21:35;2.55;;;1.90;;
43449;SDS011;29041;42.266;23.110;2022-10-31T11:24:22;3.17;;;1.27;;
43449;SDS011;29041;42.266;23.110;2022-10-31T11:27:14;8.50;;;3.05;;
43449;SDS011;29041;42.266;23.110;2022-10-31T11:30:06;3.00;;;0.90;;
43449;SDS011;29041;42.266;23.110;2022-10-31T11:32:54;4.10;;;1.38;;
43449;SDS011;29041;42.266;23.110;2022-10-31T11:35:42;3.28;;;0.80;;
43449;SDS011;29041;42.266;23.110;2022-10-31T11:38:33;5.93;;;2.42;;
43449;SDS011;29041;42.266;23.110;2022-10-31T11:41:27;1.83;;;1.10;;
43449;SDS011;29041;42.266;23.110;2022-10-31T11:44:17;4.03;;;1.00;;
43449;SDS011;29041;42.266;23.110;2022-10-31T11:47:05;4.15;;;1.25;;
43449;SDS011;29041;42.266;23.110;2022-10-31T11:50:00;1.67;;;0.55;;
43449;SDS011;29041;42.266;23.110;2022-10-31T11:52:55;1.63;;;0.57;;
43449;SDS011;29041;42.266;23.110;2022-10-31T11:55:44;4.45;;;1.33;;
43449;SDS011;29041;42.266;23.110;2022-10-31T11:58:32;2.75;;;0.90;;
43449;SDS011;29041;42.266;23.110;2022-10-31T12:01:22;0.95;;;0.52;;
43449;SDS011;29041;42.266;23.110;2022-10-31T12:04:12;2.15;;;0.70;;
43449;SDS011;29041;42.266;23.110;2022-10-31T12:07:01;1.05;;;0.40;;
43449;SDS011;29041;42.266;23.110;2022-10-31T12:09:48;2.40;;;0.47;;
43449;SDS011;29041;42.266;23.110;2022-10-31T12:12:49;2.58;;;0.77;;
43449;SDS011;29041;42.266;23.110;2022-10-31T12:15:44;2.38;;;0.60;;
43449;SDS011;29041;42.266;23.110;2022-10-31T12:18:40;2.08;;;0.60;;
43449;SDS011;29041;42.266;23.110;2022-10-31T12:21:41;2.83;;;0.70;;
43449;SDS011;29041;42.266;23.110;2022-10-31T12:24:44;1.52;;;1.10;;
43449;SDS011;29041;42.266;23.110;2022-10-31T12:31:17;1.92;;;0.73;;
43449;SDS011;29041;42.266;23.110;2022-10-31T12:34:29;1.83;;;0.75;;
43449;SDS011;29041;42.266;23.110;2022-10-31T12:37:37;4.45;;;1.02;;
43449;SDS011;29041;42.266;23.110;2022-10-31T12:40:38;2.30;;;0.50;;
43449;SDS011;29041;42.266;23.110;2022-10-31T12:43:56;3.80;;;1.30;;
43449;SDS011;29041;42.266;23.110;2022-10-31T12:46:51;1.65;;;0.40;;
43449;SDS011;29041;42.266;23.110;2022-10-31T12:49:48;4.30;;;1.55;;
43449;SDS011;29041;42.266;23.110;2022-10-31T12:52:47;4.18;;;1.38;;
43449;SDS011;29041;42.266;23.110;2022-10-31T12:55:45;1.80;;;0.68;;
43449;SDS011;29041;42.266;23.110;2022-10-31T12:58:43;2.15;;;0.98;;
43449;SDS011;29041;42.266;23.110;2022-10-31T13:01:36;4.93;;;1.17;;
43449;SDS011;29041;42.266;23.110;2022-10-31T13:04:32;4.07;;;0.52;;
43449;SDS011;29041;42.266;23.110;2022-10-31T13:07:26;1.52;;;0.80;;
43449;SDS011;29041;42.266;23.110;2022-10-31T13:10:18;5.35;;;0.90;;
43449;SDS011;29041;42.266;23.110;2022-10-31T13:13:11;3.50;;;1.02;;
43449;SDS011;29041;42.266;23.110;2022-10-31T13:16:02;3.88;;;1.23;;
43449;SDS011;29041;42.266;23.110;2022-10-31T13:18:56;2.30;;;1.15;;
43449;SDS011;29041;42.266;23.110;2022-10-31T13:21:51;0.82;;;0.45;;
43449;SDS011;29041;42.266;23.110;2022-10-31T13:24:46;0.85;;;0.45;;
43449;SDS011;29041;42.266;23.110;2022-10-31T13:27:44;2.20;;;0.32;;
43449;SDS011;29041;42.266;23.110;2022-10-31T13:30:36;2.65;;;0.57;;
43449;SDS011;29041;42.266;23.110;2022-10-31T13:33:27;1.80;;;0.93;;
43449;SDS011;29041;42.266;23.110;2022-10-31T13:36:21;3.47;;;0.87;;
43449;SDS011;29041;42.266;23.110;2022-10-31T13:39:18;2.92;;;0.70;;
43449;SDS011;29041;42.266;23.110;2022-10-31T13:42:13;1.08;;;0.60;;
43449;SDS011;29041;42.266;23.110;2022-10-31T13:45:08;5.05;;;0.75;;
43449;SDS011;29041;42.266;23.110;2022-10-31T13:47:59;3.38;;;0.80;;
43449;SDS011;29041;42.266;23.110;2022-10-31T13:50:55;3.03;;;1.02;;
43449;SDS011;29041;42.266;23.110;2022-10-31T13:53:58;4.30;;;0.93;;
43449;SDS011;29041;42.266;23.110;2022-10-31T13:56:48;1.67;;;0.68;;
43449;SDS011;29041;42.266;23.110;2022-10-31T13:59:36;4.03;;;0.68;;
43449;SDS011;29041;42.266;23.110;2022-10-31T14:02:25;4.03;;;0.68;;
43449;SDS011;29041;42.266;23.110;2022-10-31T14:05:19;3.42;;;0.57;;
43449;SDS011;29041;42.266;23.110;2022-10-31T14:08:15;1.77;;;0.90;;
43449;SDS011;29041;42.266;23.110;2022-10-31T14:11:09;4.28;;;1.10;;
43449;SDS011;29041;42.266;23.110;2022-10-31T14:14:08;4.53;;;1.35;;
43449;SDS011;29041;42.266;23.110;2022-10-31T14:16:58;3.22;;;1.00;;
43449;SDS011;29041;42.266;23.110;2022-10-31T14:19:56;3.42;;;0.60;;
43449;SDS011;29041;42.266;23.110;2022-10-31T14:22:48;0.70;;;0.63;;
43449;SDS011;29041;42.266;23.110;2022-10-31T14:25:36;3.40;;;0.68;;
43449;SDS011;29041;42.266;23.110;2022-10-31T14:28:32;6.28;;;0.98;;
43449;SDS011;29041;42.266;23.110;2022-10-31T14:31:31;2.22;;;0.73;;
43449;SDS011;29041;42.266;23.110;2022-10-31T14:34:22;4.53;;;0.82;;
43449;SDS011;29041;42.266;23.110;2022-10-31T14:37:32;2.78;;;1.23;;
43449;SDS011;29041;42.266;23.110;2022-10-31T14:40:39;2.97;;;1.05;;
43449;SDS011;29041;42.266;23.110;2022-10-31T14:43:45;3.80;;;0.90;;
43449;SDS011;29041;42.266;23.110;2022-10-31T14:46:42;1.55;;;0.80;;
43449;SDS011;29041;42.266;23.110;2022-10-31T14:49:41;2.40;;;0.80;;
43449;SDS011;29041;42.266;23.110;2022-10-31T14:52:43;4.90;;;1.40;;
43449;SDS011;29041;42.266;23.110;2022-10-31T14:55:45;4.35;;;1.30;;
43449;SDS011;29041;42.266;23.110;2022-10-31T14:58:35;5.35;;;1.42;;
43449;SDS011;29041;42.266;23.110;2022-10-31T15:01:27;3.10;;;1.30;;
43449;SDS011;29041;42.266;23.110;2022-10-31T15:04:15;5.00;;;1.25;;
43449;SDS011;29041;42.266;23.110;2022-10-31T15:07:10;0.80;;;0.52;;
43449;SDS011;29041;42.266;23.110;2022-10-31T15:10:00;5.03;;;0.83;;
43449;SDS011;29041;42.266;23.110;2022-10-31T15:12:51;4.60;;;1.17;;
43449;SDS011;29041;42.266;23.110;2022-10-31T15:15:38;2.33;;;0.75;;
43449;SDS011;29041;42.266;23.110;2022-10-31T15:18:28;1.92;;;1.20;;
43449;SDS011;29041;42.266;23.110;2022-10-31T15:21:15;3.97;;;1.42;;
43449;SDS011;29041;42.266;23.110;2022-10-31T15:24:04;4.57;;;2.42;;
43449;SDS011;29041;42.266;23.110;2022-10-31T15:26:52;3.78;;;2.40;;
43449;SDS011;29041;42.266;23.110;2022-10-31T15:29:47;7.50;;;3.30;;
43449;SDS011;29041;42.266;23.110;2022-10-31T15:32:35;2.63;;;1.77;;
43449;SDS011;29041;42.266;23.110;2022-10-31T15:35:24;5.15;;;2.28;;
43449;SDS011;29041;42.266;23.110;2022-10-31T15:38:13;4.22;;;2.05;;
43449;SDS011;29041;42.266;23.110;2022-10-31T15:41:01;7.72;;;2.60;;
43449;SDS011;29041;42.266;23.110;2022-10-31T15:43:49;4.50;;;1.65;;
43449;SDS011;29041;42.266;23.110;2022-10-31T15:46:37;6.28;;;3.35;;
43449;SDS011;29041;42.266;23.110;2022-10-31T15:49:32;5.47;;;2.58;;
43449;SDS011;29041;42.266;23.110;2022-10-31T15:52:27;7.65;;;4.25;;
43449;SDS011;29041;42.266;23.110;2022-10-31T15:55:18;5.30;;;2.70;;
43449;SDS011;29041;42.266;23.110;2022-10-31T15:58:10;9.13;;;2.63;;
43449;SDS011;29041;42.266;23.110;2022-10-31T16:00:59;3.50;;;2.60;;
43449;SDS011;29041;42.266;23.110;2022-10-31T16:03:56;11.73;;;2.38;;
43449;SDS011;29041;42.266;23.110;2022-10-31T16:06:51;7.95;;;2.67;;
43449;SDS011;29041;42.266;23.110;2022-10-31T16:09:53;11.30;;;1.92;;
43449;SDS011;29041;42.266;23.110;2022-10-31T16:12:42;10.93;;;2.97;;
43449;SDS011;29041;42.266;23.110;2022-10-31T16:15:31;7.82;;;3.97;;
43449;SDS011;29041;42.266;23.110;2022-10-31T16:18:20;11.82;;;3.58;;
43449;SDS011;29041;42.266;23.110;2022-10-31T16:21:08;12.68;;;3.83;;
43449;SDS011;29041;42.266;23.110;2022-10-31T16:23:57;9.82;;;3.42;;
43449;SDS011;29041;42.266;23.110;2022-10-31T16:26:49;7.88;;;3.75;;
43449;SDS011;29041;42.266;23.110;2022-10-31T16:29:38;6.53;;;2.60;;
43449;SDS011;29041;42.266;23.110;2022-10-31T16:32:30;7.70;;;3.22;;
43449;SDS011;29041;42.266;23.110;2022-10-31T16:35:23;11.27;;;4.70;;
43449;SDS011;29041;42.266;23.110;2022-10-31T16:38:13;6.47;;;3.50;;
43449;SDS011;29041;42.266;23.110;2022-10-31T16:41:00;6.97;;;3.33;;
43449;SDS011;29041;42.266;23.110;2022-10-31T16:43:49;10.57;;;3.75;;
43449;SDS011;29041;42.266;23.110;2022-10-31T16:46:36;6.35;;;3.38;;
43449;SDS011;29041;42.266;23.110;2022-10-31T16:49:24;14.02;;;4.25;;
43449;SDS011;29041;42.266;23.110;2022-10-31T16:52:11;10.48;;;4.22;;
43449;SDS011;29041;42.266;23.110;2022-10-31T16:54:58;9.57;;;4.38;;
43449;SDS011;29041;42.266;23.110;2022-10-31T16:57:48;12.07;;;3.50;;
43449;SDS011;29041;42.266;23.110;2022-10-31T17:00:39;5.35;;;1.70;;
43449;SDS011;29041;42.266;23.110;2022-10-31T17:03:26;4.05;;;1.75;;
43449;SDS011;29041;42.266;23.110;2022-10-31T17:06:13;3.80;;;1.05;;
43449;SDS011;29041;42.266;23.110;2022-10-31T17:09:01;7.90;;;3.05;;
43449;SDS011;29041;42.266;23.110;2022-10-31T17:11:49;5.57;;;3.25;;
43449;SDS011;29041;42.266;23.110;2022-10-31T17:14:38;6.78;;;2.15;;
43449;SDS011;29041;42.266;23.110;2022-10-31T17:17:26;4.20;;;1.50;;
43449;SDS011;29041;42.266;23.110;2022-10-31T17:20:16;3.42;;;1.63;;
43449;SDS011;29041;42.266;23.110;2022-10-31T17:23:06;5.07;;;1.40;;
43449;SDS011;29041;42.266;23.110;2022-10-31T17:25:55;3.95;;;1.55;;
43449;SDS011;29041;42.266;23.110;2022-10-31T17:28:43;7.63;;;2.55;;
43449;SDS011;29041;42.266;23.110;2022-10-31T17:31:30;4.53;;;1.50;;
43449;SDS011;29041;42.266;23.110;2022-10-31T17:34:20;3.45;;;1.42;;
43449;SDS011;29041;42.266;23.110;2022-10-31T17:37:08;4.80;;;1.40;;
43449;SDS011;29041;42.266;23.110;2022-10-31T17:39:56;2.20;;;1.23;;
43449;SDS011;29041;42.266;23.110;2022-10-31T17:42:47;3.55;;;1.73;;
43449;SDS011;29041;42.266;23.110;2022-10-31T17:45:37;3.05;;;1.15;;
43449;SDS011;29041;42.266;23.110;2022-10-31T17:48:31;5.63;;;2.22;;